Time;durP1;ratioP1;P1;durP2;ratioP2;P2;SDS_P1;SDS_P2;PMS_P1;PMS_P2;Temp;Humidity;BMP_temperature;BMP_pressure;BME280_temperature;BME280_humidity;BME280_pressure;Samples;Min_cycle;Max_cycle;Signal;HPM_P1;HPM_P2
2024/01/31 00:01:37;;;;;;;14.50;10.95;;;5.80;78.70;;;;;;5040601;28;20044;-65
2024/01/31 00:04:03;;;;;;;15.57;10.55;;;5.70;78.90;;;;;;5039805;28;20037;-65
2024/01/31 00:06:30;;;;;;;14.82;9.80;;;5.60;79.00;;;;;;5040648;28;20033;-64
2024/01/31 00:08:56;;;;;;;15.98;10.13;;;5.60;79.10;;;;;;5043165;28;20489;-65
2024/01/31 00:11:25;;;;;;;15.30;10.52;;;5.60;79.20;;;;;;5041987;28;20042;-65
2024/01/31 00:13:51;;;;;;;14.30;9.85;;;5.50;79.50;;;;;;5039994;28;20037;-64
2024/01/31 00:16:17;;;;;;;13.95;10.13;;;5.50;79.70;;;;;;5040498;28;20037;-63
2024/01/31 00:18:42;;;;;;;15.70;11.02;;;5.50;79.70;;;;;;5040922;28;20352;-63
2024/01/31 00:21:08;;;;;;;16.38;11.00;;;5.50;79.90;;;;;;5039941;28;20566;-64
2024/01/31 00:23:34;;;;;;;16.35;10.68;;;5.40;80.00;;;;;;5044752;28;20581;-63
2024/01/31 00:25:59;;;;;;;14.90;10.65;;;5.40;80.20;;;;;;5042691;28;20079;-64
2024/01/31 00:28:25;;;;;;;16.23;10.75;;;5.40;80.30;;;;;;5040661;28;20033;-63
2024/01/31 00:30:51;;;;;;;18.00;10.48;;;5.30;80.40;;;;;;5042287;28;22100;-62
2024/01/31 00:33:16;;;;;;;13.70;10.20;;;5.30;80.40;;;;;;5043889;28;20033;-63
2024/01/31 00:35:42;;;;;;;13.35;9.77;;;5.30;80.60;;;;;;5040547;28;22160;-64
2024/01/31 00:38:08;;;;;;;13.52;9.90;;;5.30;80.60;;;;;;5042142;28;20060;-64
2024/01/31 00:40:33;;;;;;;13.10;9.63;;;5.30;80.60;;;;;;5041748;28;20072;-63
2024/01/31 00:42:59;;;;;;;14.52;10.32;;;5.30;80.60;;;;;;5046680;28;20037;-63
2024/01/31 00:45:24;;;;;;;15.80;10.10;;;5.30;80.60;;;;;;5042319;28;20037;-63
2024/01/31 00:47:50;;;;;;;14.93;10.10;;;5.40;80.60;;;;;;5042660;28;20492;-63
2024/01/31 00:50:15;;;;;;;15.38;10.95;;;5.30;80.60;;;;;;5041004;28;20044;-62
2024/01/31 00:52:41;;;;;;;12.55;9.60;;;5.30;80.70;;;;;;5042268;28;20524;-62
2024/01/31 00:55:07;;;;;;;16.17;10.20;;;5.30;81.10;;;;;;5041566;28;20560;-61
2024/01/31 00:57:33;;;;;;;15.52;10.25;;;5.30;81.20;;;;;;5039884;28;20099;-63
2024/01/31 00:59:59;;;;;;;14.60;10.07;;;5.30;81.50;;;;;;5044739;28;20508;-64
2024/01/31 01:02:25;;;;;;;16.30;10.02;;;5.30;81.60;;;;;;5039902;28;20037;-62
2024/01/31 01:04:52;;;;;;;15.32;10.48;;;5.30;81.50;;;;;;5043029;28;22060;-64
2024/01/31 01:07:18;;;;;;;12.52;9.60;;;5.30;81.40;;;;;;5043557;28;20027;-64
2024/01/31 01:09:43;;;;;;;15.52;10.05;;;5.30;81.40;;;;;;5047298;28;20029;-64
2024/01/31 01:12:09;;;;;;;13.38;9.50;;;5.30;81.40;;;;;;5043524;28;20408;-64
2024/01/31 01:14:34;;;;;;;13.18;9.25;;;5.30;81.30;;;;;;5046963;28;20025;-63
2024/01/31 01:17:00;;;;;;;14.82;10.15;;;5.30;81.30;;;;;;5050179;28;20552;-64
2024/01/31 01:19:26;;;;;;;15.20;10.25;;;5.20;81.30;;;;;;5047952;28;20077;-63
2024/01/31 01:21:52;;;;;;;15.82;10.13;;;5.20;81.30;;;;;;5046287;28;20037;-64
2024/01/31 01:24:17;;;;;;;15.88;10.63;;;5.20;81.30;;;;;;5044593;28;20451;-63
2024/01/31 01:26:43;;;;;;;16.08;10.10;;;5.20;81.30;;;;;;5047504;28;20063;-63
2024/01/31 01:29:09;;;;;;;15.32;10.68;;;5.20;81.30;;;;;;5050650;28;20076;-62
2024/01/31 01:31:34;;;;;;;15.30;10.45;;;5.20;81.30;;;;;;5048920;28;20079;-63
2024/01/31 01:34:00;;;;;;;17.48;9.88;;;5.20;81.30;;;;;;5045679;28;20440;-63
2024/01/31 01:36:26;;;;;;;14.18;9.77;;;5.20;81.30;;;;;;5042938;28;20104;-64
2024/01/31 01:38:51;;;;;;;14.20;10.00;;;5.20;81.20;;;;;;5043199;28;20036;-64
2024/01/31 01:41:17;;;;;;;13.38;9.80;;;5.20;81.10;;;;;;5046679;28;20496;-63
2024/01/31 01:43:43;;;;;;;13.55;9.15;;;5.20;81.10;;;;;;5049483;28;20040;-64
2024/01/31 01:46:12;;;;;;;14.57;9.52;;;5.10;80.90;;;;;;5040229;28;20029;-63
2024/01/31 01:48:38;;;;;;;14.75;9.82;;;5.10;80.90;;;;;;5036402;28;20037;-64
2024/01/31 01:51:05;;;;;;;12.88;9.18;;;5.10;80.90;;;;;;5039072;28;20420;-63
2024/01/31 01:53:34;;;;;;;14.02;9.85;;;5.10;80.70;;;;;;5038715;28;20413;-63
2024/01/31 01:56:04;;;;;;;18.88;11.23;;;5.00;80.80;;;;;;5044604;28;20032;-64
2024/01/31 01:58:32;;;;;;;16.88;11.10;;;5.00;81.10;;;;;;5047928;28;20110;-64
2024/01/31 02:01:00;;;;;;;16.95;10.60;;;4.90;81.40;;;;;;5037209;28;20093;-64
2024/01/31 02:03:29;;;;;;;15.15;10.55;;;4.90;81.60;;;;;;5037909;28;20424;-64
2024/01/31 02:06:01;;;;;;;13.75;10.35;;;4.90;81.60;;;;;;5040841;28;20044;-63
2024/01/31 02:08:28;;;;;;;14.13;10.15;;;4.90;81.60;;;;;;5040991;28;20044;-64
2024/01/31 02:10:54;;;;;;;13.27;9.75;;;4.80;81.50;;;;;;5041752;28;20036;-64
2024/01/31 02:13:20;;;;;;;14.80;10.43;;;4.80;81.50;;;;;;5039341;28;20079;-64
2024/01/31 02:15:58;;;;;;;12.70;9.55;;;4.80;81.40;;;;;;5040525;28;20029;-64
2024/01/31 02:18:27;;;;;;;13.65;10.07;;;4.80;81.40;;;;;;5038812;28;20068;-64
2024/01/31 02:20:54;;;;;;;13.68;9.85;;;4.70;81.30;;;;;;5039160;28;20532;-64
2024/01/31 02:23:20;;;;;;;16.45;10.32;;;4.70;81.10;;;;;;5049218;28;20028;-64
2024/01/31 02:25:46;;;;;;;14.85;10.65;;;4.70;80.90;;;;;;5039437;28;20513;-65
2024/01/31 02:28:12;;;;;;;15.90;11.13;;;4.70;81.10;;;;;;5040385;28;20033;-64
2024/01/31 02:30:37;;;;;;;17.20;11.07;;;4.60;81.10;;;;;;5036458;28;20029;-63
2024/01/31 02:33:03;;;;;;;15.18;10.85;;;4.60;81.30;;;;;;5038084;28;22171;-64
2024/01/31 02:35:33;;;;;;;17.65;11.38;;;4.50;81.20;;;;;;5042203;28;20037;-63
2024/01/31 02:38:02;;;;;;;17.35;11.35;;;4.40;81.40;;;;;;5040125;28;20037;-64
2024/01/31 02:40:31;;;;;;;15.65;11.38;;;4.40;81.80;;;;;;5037250;28;20091;-64
2024/01/31 02:42:57;;;;;;;16.75;10.82;;;4.30;81.80;;;;;;5046349;28;20039;-64
2024/01/31 02:45:23;;;;;;;15.63;11.23;;;4.30;82.60;;;;;;5042409;28;20045;-63
2024/01/31 02:47:49;;;;;;;16.25;10.45;;;4.30;81.80;;;;;;5048041;28;20040;-64
2024/01/31 02:50:15;;;;;;;16.08;10.90;;;4.30;81.90;;;;;;5039259;28;20040;-64
2024/01/31 02:52:41;;;;;;;16.20;10.95;;;4.30;82.00;;;;;;5045371;28;20041;-62
2024/01/31 02:55:07;;;;;;;14.73;10.85;;;4.30;82.80;;;;;;5037850;28;20056;-63
2024/01/31 02:57:32;;;;;;;19.05;11.75;;;4.30;82.00;;;;;;5042107;28;20065;-63
2024/01/31 02:59:58;;;;;;;14.02;10.55;;;4.20;82.00;;;;;;5041830;28;20040;-63
2024/01/31 03:02:23;;;;;;;14.30;10.23;;;4.20;82.00;;;;;;5041240;28;20514;-64
2024/01/31 03:04:49;;;;;;;15.38;11.02;;;4.20;82.00;;;;;;5042161;28;20037;-64
2024/01/31 03:07:14;;;;;;;13.02;10.05;;;4.20;82.00;;;;;;5046111;28;20025;-63
2024/01/31 03:09:40;;;;;;;14.70;10.18;;;4.10;82.10;;;;;;5040741;28;20064;-64
2024/01/31 03:12:06;;;;;;;16.02;10.77;;;4.10;82.20;;;;;;5039086;28;20496;-63
2024/01/31 03:14:32;;;;;;;18.88;11.32;;;4.10;82.30;;;;;;5037797;28;20064;-64
2024/01/31 03:16:58;;;;;;;17.45;10.80;;;4.10;82.50;;;;;;5042160;28;20033;-64
2024/01/31 03:19:24;;;;;;;17.95;11.27;;;4.00;82.60;;;;;;5041044;28;20040;-64
2024/01/31 03:21:50;;;;;;;17.92;12.35;;;4.00;82.90;;;;;;5042088;28;20127;-63
2024/01/31 03:24:15;;;;;;;18.02;11.70;;;4.00;83.20;;;;;;5041486;28;20378;-64
2024/01/31 03:26:41;;;;;;;18.92;12.13;;;4.00;83.70;;;;;;5043215;28;20037;-64
2024/01/31 03:29:08;;;;;;;15.75;11.27;;;3.90;83.70;;;;;;5038862;28;20040;-64
2024/01/31 03:31:33;;;;;;;14.90;10.38;;;4.00;83.80;;;;;;5044614;28;20548;-64
2024/01/31 03:33:59;;;;;;;15.82;10.38;;;4.00;83.90;;;;;;5048119;28;20063;-64
2024/01/31 03:36:26;;;;;;;14.95;10.68;;;4.00;83.90;;;;;;5047228;28;20408;-63
2024/01/31 03:38:53;;;;;;;16.23;10.98;;;4.00;83.90;;;;;;5048850;28;20115;-62
2024/01/31 03:41:19;;;;;;;17.65;11.80;;;4.00;83.90;;;;;;5046981;28;20519;-64
2024/01/31 03:43:45;;;;;;;15.80;11.52;;;4.00;84.00;;;;;;5048483;28;20036;-62
2024/01/31 03:46:10;;;;;;;17.02;11.20;;;4.00;84.10;;;;;;5047479;28;20041;-63
2024/01/31 03:48:36;;;;;;;19.33;12.07;;;4.00;84.20;;;;;;5047472;28;20025;-63
2024/01/31 03:51:01;;;;;;;17.15;11.80;;;4.10;84.40;;;;;;5052834;28;20035;-64
2024/01/31 03:53:27;;;;;;;18.30;12.10;;;4.10;84.50;;;;;;5047825;28;20027;-63
2024/01/31 03:55:53;;;;;;;17.13;11.52;;;4.10;84.50;;;;;;5045916;28;20028;-64
2024/01/31 03:58:19;;;;;;;18.85;11.75;;;4.10;84.40;;;;;;5050461;28;20524;-64
2024/01/31 04:00:45;;;;;;;16.10;11.60;;;4.20;84.40;;;;;;5047915;28;20037;-63
2024/01/31 04:03:10;;;;;;;17.13;11.55;;;4.20;84.40;;;;;;5047274;28;20037;-62
2024/01/31 04:05:36;;;;;;;16.33;11.10;;;4.30;84.60;;;;;;5047451;28;20111;-63
2024/01/31 04:08:02;;;;;;;17.23;11.00;;;4.30;84.70;;;;;;5053054;28;20029;-63
2024/01/31 04:10:27;;;;;;;17.67;10.73;;;4.30;84.70;;;;;;5045535;28;20073;-63
2024/01/31 04:12:53;;;;;;;17.08;11.35;;;4.30;84.90;;;;;;5046687;28;20044;-63
2024/01/31 04:15:19;;;;;;;16.65;11.07;;;4.40;85.00;;;;;;5044854;28;20060;-64
2024/01/31 04:17:44;;;;;;;17.63;10.75;;;4.40;85.10;;;;;;5046424;28;20083;-64
2024/01/31 04:20:11;;;;;;;21.38;10.93;;;4.40;84.90;;;;;;5050833;28;20029;-64
2024/01/31 04:22:37;;;;;;;17.08;11.20;;;4.50;84.90;;;;;;5036976;28;20054;-64
2024/01/31 04:25:07;;;;;;;15.82;11.15;;;4.50;84.90;;;;;;5051091;28;20048;-63
2024/01/31 04:27:33;;;;;;;18.42;11.30;;;4.50;84.80;;;;;;5046080;28;20033;-64
2024/01/31 04:29:58;;;;;;;18.65;11.98;;;4.60;84.70;;;;;;5044448;28;20276;-64
2024/01/31 04:32:24;;;;;;;17.27;11.90;;;4.50;84.70;;;;;;5042980;28;20034;-64
2024/01/31 04:34:51;;;;;;;17.80;10.73;;;4.60;84.90;;;;;;5048978;28;20037;-63
2024/01/31 04:37:16;;;;;;;17.80;11.57;;;4.60;85.00;;;;;;5049142;28;20053;-64
2024/01/31 04:39:43;;;;;;;18.42;11.55;;;4.60;85.00;;;;;;5047509;28;20159;-64
2024/01/31 04:42:08;;;;;;;19.08;11.45;;;4.60;84.90;;;;;;5045052;28;20412;-62
2024/01/31 04:44:34;;;;;;;16.17;10.82;;;4.60;84.90;;;;;;5039842;28;20029;-64
2024/01/31 04:47:00;;;;;;;16.90;11.30;;;4.60;84.80;;;;;;5042084;28;20488;-64
2024/01/31 04:49:26;;;;;;;18.63;11.05;;;4.70;84.70;;;;;;5041837;28;20036;-64
2024/01/31 04:51:51;;;;;;;18.13;11.98;;;4.70;84.60;;;;;;5042816;28;20033;-63
2024/01/31 04:54:17;;;;;;;19.83;11.82;;;4.70;84.50;;;;;;5037116;28;20045;-63
2024/01/31 04:56:42;;;;;;;17.52;11.73;;;4.70;84.30;;;;;;5039010;28;20037;-64
2024/01/31 04:59:08;;;;;;;16.70;11.13;;;4.70;84.20;;;;;;5039385;28;20484;-63
2024/01/31 05:01:34;;;;;;;18.33;11.20;;;4.70;84.10;;;;;;5041105;28;20040;-62
2024/01/31 05:04:00;;;;;;;19.92;11.95;;;4.60;84.00;;;;;;5041767;28;20041;-63
2024/01/31 05:06:25;;;;;;;17.58;11.60;;;4.60;84.20;;;;;;5041428;28;20059;-64
2024/01/31 05:08:51;;;;;;;14.68;10.15;;;4.60;84.60;;;;;;5041779;28;20037;-61
2024/01/31 05:11:17;;;;;;;19.10;11.45;;;4.60;84.70;;;;;;5041693;28;20048;-63
2024/01/31 05:13:43;;;;;;;18.45;11.60;;;4.60;85.00;;;;;;5041961;28;20083;-64
2024/01/31 05:16:09;;;;;;;18.38;11.70;;;4.60;84.90;;;;;;5041634;28;20393;-62
2024/01/31 05:18:35;;;;;;;16.27;11.10;;;4.60;85.00;;;;;;5043667;28;20029;-63
2024/01/31 05:21:01;;;;;;;15.23;10.80;;;4.60;85.10;;;;;;5040498;28;20052;-63
2024/01/31 05:23:27;;;;;;;15.95;10.63;;;4.60;85.10;;;;;;5036811;28;20060;-64
2024/01/31 05:25:52;;;;;;;15.88;10.30;;;4.60;85.10;;;;;;5040619;28;20116;-64
2024/01/31 05:28:18;;;;;;;15.18;10.90;;;4.60;85.00;;;;;;5042344;28;20037;-64
2024/01/31 05:30:44;;;;;;;15.93;11.43;;;4.60;85.00;;;;;;5044541;28;20413;-64
2024/01/31 05:33:09;;;;;;;16.55;11.27;;;4.60;84.90;;;;;;5041503;28;20382;-63
2024/01/31 05:35:36;;;;;;;24.50;15.25;;;4.60;85.00;;;;;;5045957;28;20037;-61
2024/01/31 05:38:05;;;;;;;37.15;23.13;;;4.60;85.10;;;;;;5045203;28;20033;-62
2024/01/31 05:40:31;;;;;;;47.03;28.05;;;4.60;85.30;;;;;;5050195;28;20053;-63
2024/01/31 05:42:57;;;;;;;45.92;28.65;;;4.60;85.20;;;;;;5036668;28;20033;-63
2024/01/31 05:45:23;;;;;;;38.85;24.77;;;4.70;85.30;;;;;;5044734;28;20093;-63
2024/01/31 05:47:49;;;;;;;45.20;29.00;;;4.70;85.40;;;;;;5043818;28;20237;-63
2024/01/31 05:50:14;;;;;;;38.58;25.83;;;4.70;85.40;;;;;;5041847;28;20586;-64
2024/01/31 05:52:40;;;;;;;29.25;20.20;;;4.70;85.40;;;;;;5046150;28;20038;-63
2024/01/31 05:55:06;;;;;;;24.98;16.67;;;4.70;85.40;;;;;;5038928;28;20057;-63
2024/01/31 05:57:32;;;;;;;24.20;16.88;;;4.80;85.40;;;;;;5042426;28;20033;-62
2024/01/31 05:59:58;;;;;;;24.08;17.15;;;4.80;85.40;;;;;;5045863;28;20033;-63
2024/01/31 06:02:24;;;;;;;26.98;18.13;;;4.80;85.40;;;;;;5043772;28;20053;-63
2024/01/31 06:04:50;;;;;;;31.08;20.00;;;4.80;85.50;;;;;;5049006;28;20515;-64
2024/01/31 06:07:15;;;;;;;23.30;16.42;;;4.80;85.60;;;;;;5043353;28;20078;-64
2024/01/31 06:09:41;;;;;;;24.58;15.73;;;4.80;85.80;;;;;;5045638;28;20120;-65
2024/01/31 06:12:07;;;;;;;23.13;15.77;;;4.90;86.10;;;;;;5046029;28;20584;-64
2024/01/31 06:14:36;;;;;;;24.42;16.48;;;4.90;86.30;;;;;;5038688;28;20077;-64
2024/01/31 06:17:02;;;;;;;26.02;16.23;;;4.90;86.50;;;;;;5045136;28;20516;-63
2024/01/31 06:19:27;;;;;;;22.60;15.82;;;4.90;86.70;;;;;;5040777;28;20412;-63
2024/01/31 06:21:53;;;;;;;22.80;14.65;;;4.90;86.80;;;;;;5044981;28;20152;-63
2024/01/31 06:24:19;;;;;;;28.13;16.25;;;4.90;86.90;;;;;;5042269;28;20037;-63
2024/01/31 06:26:44;;;;;;;25.90;16.80;;;4.90;86.80;;;;;;5045189;28;20063;-63
2024/01/31 06:29:17;;;;;;;23.55;15.60;;;5.00;86.80;;;;;;5041522;28;20030;-64
2024/01/31 06:31:46;;;;;;;24.30;16.30;;;5.00;86.80;;;;;;5049406;28;20033;-64
2024/01/31 06:34:12;;;;;;;24.52;15.57;;;5.10;86.80;;;;;;5044438;28;20516;-63
2024/01/31 06:36:38;;;;;;;22.15;14.27;;;5.10;86.70;;;;;;5044033;28;20109;-63
2024/01/31 06:39:03;;;;;;;21.25;14.88;;;5.20;86.80;;;;;;5044415;28;20099;-62
2024/01/31 06:41:29;;;;;;;26.15;14.93;;;5.20;86.80;;;;;;5043125;28;20037;-63
2024/01/31 06:43:55;;;;;;;21.75;14.82;;;5.20;86.60;;;;;;5048711;28;20125;-63
2024/01/31 06:46:20;;;;;;;23.25;15.15;;;5.20;86.60;;;;;;5042414;28;20400;-63
2024/01/31 06:48:46;;;;;;;22.48;15.52;;;5.30;86.60;;;;;;5046878;28;20029;-64
2024/01/31 06:51:12;;;;;;;21.05;14.65;;;5.30;86.50;;;;;;5040121;28;20033;-63
2024/01/31 06:53:37;;;;;;;24.27;15.55;;;5.30;86.40;;;;;;5041955;28;20038;-62
2024/01/31 06:56:03;;;;;;;22.00;14.77;;;5.40;86.40;;;;;;5047326;28;20053;-64
2024/01/31 06:58:30;;;;;;;30.42;18.15;;;5.50;86.50;;;;;;5045201;28;20034;-63
2024/01/31 07:00:59;;;;;;;31.27;19.90;;;5.50;86.30;;;;;;5043266;28;20052;-63
2024/01/31 07:03:25;;;;;;;39.55;22.15;;;5.50;86.20;;;;;;5039829;28;20508;-63
2024/01/31 07:05:51;;;;;;;33.30;21.58;;;5.50;86.10;;;;;;5042722;28;20069;-62
2024/01/31 07:08:16;;;;;;;29.95;18.92;;;5.60;86.30;;;;;;5049323;28;20236;-62
2024/01/31 07:10:42;;;;;;;28.98;17.13;;;5.60;86.30;;;;;;5042939;28;20064;-62
2024/01/31 07:13:07;;;;;;;25.95;16.92;;;5.60;86.30;;;;;;5045653;28;20025;-63
2024/01/31 07:15:33;;;;;;;21.08;13.60;;;5.60;86.10;;;;;;5043690;28;20060;-64
2024/01/31 07:17:58;;;;;;;22.42;13.90;;;5.70;86.10;;;;;;5037546;28;20098;-63
2024/01/31 07:20:24;;;;;;;24.90;14.85;;;5.70;86.00;;;;;;5046475;28;20034;-63
2024/01/31 07:22:49;;;;;;;23.13;14.27;;;5.70;85.90;;;;;;5046166;28;20041;-63
2024/01/31 07:25:15;;;;;;;23.98;14.32;;;5.80;86.00;;;;;;5043730;28;20037;-64
2024/01/31 07:27:42;;;;;;;42.25;22.13;;;5.80;85.80;;;;;;5047189;28;20037;-63
2024/01/31 07:30:11;;;;;;;30.33;16.02;;;5.80;85.70;;;;;;5041334;28;20119;-63
2024/01/31 07:32:40;;;;;;;41.78;20.23;;;5.80;85.80;;;;;;5040794;28;20025;-63
2024/01/31 07:35:09;;;;;;;38.45;20.00;;;5.90;85.80;;;;;;5044524;28;20046;-63
2024/01/31 07:37:38;;;;;;;41.45;18.73;;;5.90;85.80;;;;;;5043036;28;20459;-63
2024/01/31 07:40:05;;;;;;;31.90;17.50;;;5.90;85.90;;;;;;5048263;28;20045;-63
2024/01/31 07:42:31;;;;;;;30.55;17.38;;;6.00;86.00;;;;;;5041127;28;20029;-64
2024/01/31 07:44:57;;;;;;;34.35;18.50;;;6.00;86.00;;;;;;5042843;28;20489;-64
2024/01/31 07:47:22;;;;;;;33.38;18.63;;;6.00;86.00;;;;;;5041902;28;20033;-63
2024/01/31 07:49:48;;;;;;;27.70;17.02;;;6.10;86.10;;;;;;5043554;28;20041;-64
2024/01/31 07:52:13;;;;;;;30.35;19.17;;;6.10;86.10;;;;;;5043732;28;20037;-64
2024/01/31 07:54:39;;;;;;;33.75;20.27;;;6.20;86.00;;;;;;5041649;28;20582;-63
2024/01/31 07:57:05;;;;;;;28.05;18.77;;;6.20;85.90;;;;;;5044507;28;20108;-64
2024/01/31 07:59:30;;;;;;;26.80;18.58;;;6.20;85.80;;;;;;5040012;28;20034;-63
2024/01/31 08:01:56;;;;;;;28.67;18.58;;;6.20;85.80;;;;;;5041387;28;20507;-64
2024/01/31 08:04:21;;;;;;;25.17;17.10;;;6.20;85.70;;;;;;5044201;28;20037;-64
2024/01/31 08:06:47;;;;;;;29.25;18.02;;;6.20;85.60;;;;;;5051166;28;20040;-64
2024/01/31 08:09:15;;;;;;;24.10;16.42;;;6.20;85.60;;;;;;5039418;28;20025;-62
2024/01/31 08:11:44;;;;;;;24.30;15.73;;;6.30;85.60;;;;;;5040260;28;20025;-64
2024/01/31 08:14:10;;;;;;;25.50;16.85;;;6.30;85.80;;;;;;5043365;28;20033;-64
2024/01/31 08:16:36;;;;;;;25.90;17.08;;;6.30;85.80;;;;;;5043167;28;20063;-63
2024/01/31 08:19:02;;;;;;;23.90;15.90;;;6.40;85.90;;;;;;5051495;28;20108;-63
2024/01/31 08:21:31;;;;;;;24.85;16.60;;;6.40;85.90;;;;;;5043329;28;20112;-64
2024/01/31 08:23:56;;;;;;;24.70;16.60;;;6.40;86.00;;;;;;5043699;28;20041;-64
2024/01/31 08:26:22;;;;;;;23.13;16.45;;;6.40;86.00;;;;;;5046192;28;20051;-64
2024/01/31 08:28:48;;;;;;;30.92;20.73;;;6.50;86.00;;;;;;5046264;28;20044;-63
2024/01/31 08:31:13;;;;;;;36.50;20.42;;;6.50;86.00;;;;;;5048946;28;20037;-61
2024/01/31 08:33:39;;;;;;;32.25;20.50;;;6.60;86.10;;;;;;5046896;28;21750;-64
2024/01/31 08:36:04;;;;;;;29.25;19.17;;;6.60;86.10;;;;;;5049836;28;20025;-64
2024/01/31 08:38:30;;;;;;;26.48;17.45;;;6.60;86.10;;;;;;5043051;28;20504;-63
2024/01/31 08:40:56;;;;;;;26.83;17.30;;;6.70;86.10;;;;;;5047306;28;20763;-64
2024/01/31 08:43:21;;;;;;;26.85;17.13;;;6.70;86.00;;;;;;5050118;28;20499;-63
2024/01/31 08:45:47;;;;;;;25.42;16.65;;;6.70;86.00;;;;;;5046205;28;20102;-63
2024/01/31 08:48:12;;;;;;;22.80;17.27;;;6.80;86.10;;;;;;5048276;28;20060;-62
2024/01/31 08:50:38;;;;;;;24.35;17.40;;;6.80;86.00;;;;;;5045533;28;20045;-62
2024/01/31 08:53:04;;;;;;;24.65;17.38;;;6.80;85.90;;;;;;5046161;28;20040;-63
2024/01/31 08:55:29;;;;;;;27.85;18.17;;;6.90;85.90;;;;;;5051384;28;20052;-64
2024/01/31 08:57:55;;;;;;;24.13;16.70;;;6.90;85.80;;;;;;5046149;28;20068;-63
2024/01/31 09:00:21;;;;;;;22.55;16.27;;;6.90;85.90;;;;;;5050209;28;20431;-65
2024/01/31 09:02:47;;;;;;;25.10;16.35;;;7.00;85.90;;;;;;5045337;28;20037;-63
2024/01/31 09:05:12;;;;;;;23.50;16.20;;;7.00;85.90;;;;;;5041047;28;20087;-63
2024/01/31 09:07:38;;;;;;;21.58;14.82;;;7.10;86.00;;;;;;5050158;28;20412;-63
2024/01/31 09:10:04;;;;;;;29.70;17.15;;;7.10;86.70;;;;;;5043490;28;20062;-61
2024/01/31 09:12:30;;;;;;;27.42;15.77;;;7.20;86.00;;;;;;5044601;28;20033;-63
2024/01/31 09:14:56;;;;;;;21.67;14.95;;;7.30;86.00;;;;;;5041610;28;20034;-63
2024/01/31 09:17:22;;;;;;;18.17;13.25;;;7.30;86.00;;;;;;5041721;28;20052;-63
2024/01/31 09:19:47;;;;;;;18.67;12.95;;;7.40;86.00;;;;;;5042533;28;20048;-62
2024/01/31 09:22:13;;;;;;;17.45;12.52;;;7.50;85.90;;;;;;5041422;28;20082;-65
2024/01/31 09:24:38;;;;;;;19.10;12.77;;;7.50;85.80;;;;;;5041106;28;20033;-63
2024/01/31 09:27:04;;;;;;;19.00;13.07;;;7.60;85.70;;;;;;5044429;28;20492;-64
2024/01/31 09:29:30;;;;;;;17.15;12.15;;;7.70;85.60;;;;;;5044214;28;20534;-64
2024/01/31 09:31:56;;;;;;;18.20;12.68;;;7.70;85.50;;;;;;5046769;28;20036;-64
2024/01/31 09:34:21;;;;;;;21.25;13.10;;;7.80;85.50;;;;;;5040318;28;20044;-62
2024/01/31 09:36:48;;;;;;;18.20;13.13;;;7.90;85.30;;;;;;5044104;28;20037;-64
2024/01/31 09:39:14;;;;;;;17.13;12.57;;;7.90;85.20;;;;;;5046698;28;20084;-64
2024/01/31 09:41:40;;;;;;;17.15;12.65;;;8.00;85.20;;;;;;5044560;28;20057;-63
2024/01/31 09:44:06;;;;;;;21.17;12.80;;;8.00;85.00;;;;;;5045553;28;20037;-64
2024/01/31 09:46:32;;;;;;;18.60;12.80;;;8.10;84.80;;;;;;5043330;28;20520;-63
2024/01/31 09:48:58;;;;;;;17.00;12.52;;;8.10;84.70;;;;;;5042922;28;20025;-64
2024/01/31 09:51:25;;;;;;;20.60;13.35;;;8.20;84.60;;;;;;5040919;28;20733;-64
2024/01/31 09:53:56;;;;;;;18.85;12.50;;;8.20;84.30;;;;;;5045943;28;20045;-63
2024/01/31 09:56:22;;;;;;;17.17;11.98;;;8.30;84.20;;;;;;5040755;28;20038;-63
2024/01/31 09:58:47;;;;;;;17.05;12.23;;;8.30;84.00;;;;;;5040780;28;20035;-64
2024/01/31 10:01:15;;;;;;;16.60;12.27;;;8.40;84.00;;;;;;5045426;28;20032;-64
2024/01/31 10:03:40;;;;;;;16.92;11.70;;;8.40;83.70;;;;;;5046095;28;20025;-64
2024/01/31 10:06:06;;;;;;;20.25;12.00;;;8.50;83.60;;;;;;5046186;28;20033;-64
2024/01/31 10:08:32;;;;;;;19.20;12.93;;;8.50;83.40;;;;;;5048230;28;20509;-65
2024/01/31 10:10:58;;;;;;;22.45;14.13;;;8.50;83.30;;;;;;5041136;28;20041;-65
2024/01/31 10:13:23;;;;;;;22.27;14.27;;;8.50;83.10;;;;;;5039991;28;21021;-63
2024/01/31 10:15:49;;;;;;;18.50;12.80;;;8.50;83.00;;;;;;5048096;28;20264;-62
2024/01/31 10:18:15;;;;;;;17.25;12.45;;;8.60;82.90;;;;;;5038589;28;20591;-64
2024/01/31 10:20:41;;;;;;;17.38;12.00;;;8.60;82.90;;;;;;5047089;28;20045;-64
2024/01/31 10:23:06;;;;;;;16.63;12.23;;;8.60;82.90;;;;;;5041177;28;20033;-65
2024/01/31 10:25:32;;;;;;;18.40;11.75;;;8.60;82.70;;;;;;5046009;28;20053;-64
2024/01/31 10:27:58;;;;;;;16.35;11.85;;;8.60;82.70;;;;;;5049935;28;20044;-64
2024/01/31 10:30:23;;;;;;;16.38;12.15;;;8.70;82.70;;;;;;5039419;28;20033;-64
2024/01/31 10:32:50;;;;;;;15.75;11.75;;;8.70;82.60;;;;;;5045033;28;20099;-63
2024/01/31 10:35:15;;;;;;;20.15;12.23;;;8.70;82.50;;;;;;5041313;28;20082;-64
2024/01/31 10:37:41;;;;;;;15.25;11.60;;;8.70;82.50;;;;;;5043624;28;20612;-64
2024/01/31 10:40:12;;;;;;;14.88;11.23;;;8.70;82.60;;;;;;5044539;28;20055;-64
2024/01/31 10:42:38;;;;;;;15.50;11.27;;;8.70;82.60;;;;;;5042037;28;20056;-64
2024/01/31 10:45:05;;;;;;;15.35;11.30;;;8.80;82.70;;;;;;5040979;28;20526;-63
2024/01/31 10:47:31;;;;;;;15.15;11.10;;;8.80;82.90;;;;;;5048246;28;20045;-64
2024/01/31 10:49:58;;;;;;;13.55;10.80;;;8.90;83.00;;;;;;5038003;28;20040;-64
2024/01/31 10:52:29;;;;;;;18.10;11.35;;;8.90;83.00;;;;;;5042774;28;20095;-63
2024/01/31 10:54:59;;;;;;;15.13;10.98;;;9.00;82.90;;;;;;5043120;28;20495;-64
2024/01/31 10:57:26;;;;;;;14.45;10.52;;;9.10;83.00;;;;;;5040347;28;20077;-64
2024/01/31 10:59:51;;;;;;;14.25;10.30;;;9.20;83.00;;;;;;5048327;28;20084;-63
2024/01/31 11:02:18;;;;;;;14.02;11.07;;;9.20;82.80;;;;;;5038051;28;20522;-64
2024/01/31 11:04:43;;;;;;;17.98;12.43;;;9.30;82.70;;;;;;5043471;28;20047;-65
2024/01/31 11:07:20;;;;;;;18.55;12.48;;;9.40;82.70;;;;;;5044038;28;20029;-64
2024/01/31 11:09:48;;;;;;;17.65;12.20;;;9.50;82.50;;;;;;5038896;28;20505;-63
2024/01/31 11:12:16;;;;;;;14.80;11.00;;;9.60;82.40;;;;;;5038224;28;20168;-64
2024/01/31 11:14:44;;;;;;;16.80;11.40;;;9.70;82.20;;;;;;5045417;28;20037;-64
2024/01/31 11:17:12;;;;;;;17.75;10.82;;;9.70;81.90;;;;;;5039202;28;20033;-63
2024/01/31 11:19:52;;;;;;;14.32;10.07;;;9.80;81.90;;;;;;5040158;28;20083;-64
2024/01/31 11:22:21;;;;;;;12.93;9.75;;;9.80;81.50;;;;;;5036184;28;20553;-64
2024/01/31 11:24:47;;;;;;;13.18;9.95;;;9.90;81.30;;;;;;5043769;28;20064;-63
2024/01/31 11:27:14;;;;;;;14.18;9.57;;;9.90;81.20;;;;;;5042476;28;20040;-63
2024/01/31 11:29:42;;;;;;;15.55;9.35;;;10.00;81.00;;;;;;5045267;28;20029;-61
2024/01/31 11:32:09;;;;;;;14.27;9.27;;;10.00;80.90;;;;;;5041254;28;20700;-64
2024/01/31 11:34:37;;;;;;;16.90;9.73;;;10.10;81.00;;;;;;5042395;28;20111;-64
2024/01/31 11:37:03;;;;;;;14.82;9.88;;;10.10;80.80;;;;;;5035413;28;20036;-63
2024/01/31 11:39:28;;;;;;;11.75;9.02;;;10.20;80.70;;;;;;5044922;28;20033;-63
2024/01/31 11:41:54;;;;;;;14.50;9.25;;;10.20;80.50;;;;;;5046424;28;20044;-63
2024/01/31 11:44:20;;;;;;;13.93;8.90;;;10.30;80.50;;;;;;5045592;28;20045;-64
2024/01/31 11:46:46;;;;;;;12.40;9.63;;;10.30;80.30;;;;;;5038629;28;20035;-64
2024/01/31 11:49:12;;;;;;;11.77;8.95;;;10.40;80.30;;;;;;5041211;28;20029;-65
2024/01/31 11:51:37;;;;;;;12.05;8.85;;;10.40;80.00;;;;;;5043774;28;20071;-63
2024/01/31 11:54:04;;;;;;;14.10;10.25;;;10.50;79.80;;;;;;5045377;28;20032;-64
2024/01/31 11:56:30;;;;;;;13.82;9.20;;;10.60;79.80;;;;;;5051363;28;20026;-64
2024/01/31 11:58:57;;;;;;;15.60;9.57;;;10.60;79.60;;;;;;5045354;28;20056;-64
2024/01/31 12:01:24;;;;;;;13.63;9.35;;;10.70;79.60;;;;;;5045434;28;20146;-64
2024/01/31 12:03:50;;;;;;;12.35;8.95;;;10.70;79.60;;;;;;5044927;28;20048;-64
2024/01/31 12:06:19;;;;;;;15.20;9.25;;;10.80;79.50;;;;;;5044580;28;20061;-64
2024/01/31 12:08:48;;;;;;;11.98;9.15;;;10.90;79.20;;;;;;5053957;28;20029;-64
2024/01/31 12:11:15;;;;;;;12.63;9.10;;;10.90;79.40;;;;;;5049074;28;20039;-64
2024/01/31 12:13:41;;;;;;;14.32;9.15;;;11.00;79.20;;;;;;5043873;28;20190;-64
2024/01/31 12:16:08;;;;;;;13.93;8.82;;;11.00;79.10;;;;;;5045823;28;20460;-64
2024/01/31 12:18:33;;;;;;;11.27;8.90;;;11.10;79.10;;;;;;5043327;28;20026;-64
2024/01/31 12:21:03;;;;;;;14.05;8.98;;;11.20;79.10;;;;;;5048736;28;20496;-64
2024/01/31 12:23:29;;;;;;;12.00;9.02;;;11.20;79.10;;;;;;5042072;28;20053;-64
2024/01/31 12:25:55;;;;;;;13.00;8.88;;;11.30;78.80;;;;;;5046558;28;20092;-63
2024/01/31 12:28:21;;;;;;;13.35;8.82;;;11.40;78.70;;;;;;5043647;28;20388;-63
2024/01/31 12:30:46;;;;;;;12.98;8.60;;;11.50;78.70;;;;;;5048266;28;20124;-64
2024/01/31 12:33:12;;;;;;;16.23;9.90;;;11.50;78.40;;;;;;5041549;28;20174;-64